createdAt,value
2023-05-21T00:00:18.698Z,29.38
2023-05-21T00:01:19.854Z,30.31
2023-05-21T00:02:20.153Z,27.88
2023-05-21T00:03:19.082Z,29.38
2023-05-21T00:04:18.768Z,29.50
2023-05-21T00:05:18.823Z,29.31
2023-05-21T00:06:20.065Z,27.24
2023-05-21T00:07:18.882Z,33.17
2023-05-21T00:08:19.989Z,30.29
2023-05-21T00:09:19.032Z,28.41
2023-05-21T00:10:18.987Z,27.61
2023-05-21T00:11:20.115Z,28.72
2023-05-21T00:12:20.099Z,29.76
2023-05-21T00:13:19.251Z,29.88
2023-05-21T00:14:20.142Z,32.34
2023-05-21T00:15:20.171Z,28.02
2023-05-21T00:16:20.253Z,27.41
2023-05-21T00:17:20.264Z,28.45
2023-05-21T00:18:20.289Z,31.69
2023-05-21T00:19:20.360Z,29.38
2023-05-21T00:20:20.535Z,31.31
2023-05-21T00:21:19.611Z,27.85
2023-05-21T00:22:19.673Z,28.67
2023-05-21T00:23:20.613Z,30.00
2023-05-21T00:24:19.592Z,31.65
2023-05-21T00:25:20.568Z,31.80
2023-05-21T00:26:19.820Z,30.82
2023-05-21T00:27:19.772Z,32.11
2023-05-21T00:28:19.756Z,31.75
2023-05-21T00:29:20.860Z,29.99
2023-05-21T00:30:21.030Z,28.57
2023-05-21T00:31:21.049Z,28.93
2023-05-21T00:32:19.858Z,27.03
2023-05-21T00:33:20.884Z,30.73
2023-05-21T00:34:21.172Z,27.05
2023-05-21T00:35:21.206Z,28.18
2023-05-21T00:36:20.276Z,26.38
2023-05-21T00:37:20.271Z,30.13
2023-05-21T00:38:20.265Z,27.64
2023-05-21T00:39:21.143Z,30.35
2023-05-21T00:40:20.267Z,30.60
2023-05-21T00:41:20.317Z,29.74
2023-05-21T00:42:20.381Z,31.11
2023-05-21T00:43:20.267Z,31.60
2023-05-21T00:44:20.471Z,30.13
2023-05-21T00:45:20.355Z,30.50
2023-05-21T00:46:20.577Z,31.09
2023-05-21T00:47:21.496Z,28.58
2023-05-21T00:48:21.489Z,29.46
2023-05-21T00:49:21.543Z,27.30
2023-05-21T00:50:20.720Z,29.05
2023-05-21T00:51:20.681Z,29.98
2023-05-21T00:52:21.651Z,31.09
2023-05-21T00:53:21.944Z,31.24
2023-05-21T00:54:21.820Z,31.59
2023-05-21T00:55:21.792Z,30.18
2023-05-21T00:56:20.837Z,28.99
2023-05-21T00:57:22.147Z,30.69
2023-05-21T00:58:21.974Z,29.12
2023-05-21T00:59:22.196Z,29.15
2023-05-21T01:00:22.068Z,28.90
2023-05-21T01:01:21.134Z,30.95
2023-05-21T01:02:21.162Z,29.22
2023-05-21T01:03:21.349Z,31.82
2023-05-21T01:04:21.235Z,28.43
2023-05-21T01:05:22.352Z,27.15
2023-05-21T01:06:21.391Z,28.43
2023-05-21T01:07:21.321Z,29.62
2023-05-21T01:08:22.456Z,28.82
2023-05-21T01:09:21.399Z,29.29
2023-05-21T01:10:22.477Z,29.80
2023-05-21T01:11:21.710Z,28.56
2023-05-21T01:12:21.592Z,30.63
2023-05-21T01:13:21.700Z,30.79
2023-05-21T01:14:22.704Z,29.09
2023-05-21T01:15:21.814Z,29.71
2023-05-21T01:16:22.041Z,31.98
2023-05-21T01:17:21.806Z,29.37
2023-05-21T01:18:21.896Z,28.92
2023-05-21T01:19:21.897Z,29.23
2023-05-21T01:20:22.868Z,27.17
2023-05-21T01:21:21.927Z,30.21
2023-05-21T01:22:22.952Z,31.07
2023-05-21T01:23:22.246Z,27.36
2023-05-21T01:24:23.257Z,29.17
2023-05-21T01:25:22.281Z,28.82
2023-05-21T01:26:22.238Z,31.31
2023-05-21T01:27:23.195Z,31.66
2023-05-21T01:28:22.236Z,30.52
2023-05-21T01:29:22.324Z,29.95
2023-05-21T01:30:22.334Z,30.01
2023-05-21T01:31:22.629Z,28.71
2023-05-21T01:32:22.643Z,28.02
2023-05-21T01:33:22.531Z,32.42
2023-05-21T01:34:22.571Z,28.29
2023-05-21T01:35:22.675Z,27.15
2023-05-21T01:36:22.626Z,28.49
2023-05-21T01:37:22.818Z,27.14
2023-05-21T01:38:23.873Z,29.26
2023-05-21T01:39:22.766Z,26.07
2023-05-21T01:40:22.833Z,29.97
2023-05-21T01:41:23.903Z,29.17
2023-05-21T01:42:22.912Z,30.93
2023-05-21T01:43:22.985Z,29.90
2023-05-21T01:44:24.155Z,28.62
2023-05-21T01:45:23.070Z,30.10
2023-05-21T01:46:23.244Z,27.90
2023-05-21T01:47:23.141Z,28.29
2023-05-21T01:48:23.473Z,29.64
2023-05-21T01:49:23.317Z,29.00
2023-05-21T01:50:23.271Z,28.14
2023-05-21T01:51:24.305Z,27.93
2023-05-21T01:52:24.370Z,27.90
2023-05-21T01:53:24.420Z,27.36
2023-05-21T01:54:23.536Z,30.11
2023-05-21T01:55:23.490Z,29.85
2023-05-21T01:56:24.741Z,33.90
2023-05-21T01:57:24.736Z,29.83
2023-05-21T01:58:24.685Z,28.69
2023-05-21T01:59:23.747Z,28.03
2023-05-21T02:00:24.734Z,29.15
2023-05-21T02:01:25.048Z,29.00
2023-05-21T02:02:25.237Z,30.91
2023-05-21T02:03:25.050Z,28.89
2023-05-21T02:04:23.962Z,27.33
2023-05-21T02:05:25.095Z,31.73
2023-05-21T02:06:25.175Z,29.60
2023-05-21T02:07:24.098Z,27.95
2023-05-21T02:08:25.143Z,28.78
2023-05-21T02:09:25.388Z,32.53
2023-05-21T02:10:25.371Z,28.85
2023-05-21T02:11:24.285Z,28.09
2023-05-21T02:12:24.339Z,29.05
2023-05-21T02:13:26.517Z,28.98
2023-05-21T02:14:24.621Z,28.41
2023-05-21T02:15:25.551Z,27.34
2023-05-21T02:16:24.630Z,30.01
2023-05-21T02:17:25.772Z,30.49
2023-05-21T02:18:24.851Z,31.51
2023-05-21T02:19:24.898Z,30.16
2023-05-21T02:20:25.812Z,25.00
2023-05-21T02:21:25.891Z,26.59
2023-05-21T02:22:26.093Z,28.38
2023-05-21T02:23:24.953Z,33.33
2023-05-21T02:24:24.965Z,29.95
2023-05-21T02:25:25.021Z,32.22
2023-05-21T02:26:25.089Z,29.93
2023-05-21T02:27:25.295Z,29.79
2023-05-21T02:28:26.192Z,25.00
2023-05-21T02:29:25.466Z,29.13
2023-05-21T02:30:26.346Z,28.04
2023-05-21T02:31:26.367Z,30.27
2023-05-21T02:32:26.498Z,30.91
2023-05-21T02:33:26.459Z,28.43
2023-05-21T02:34:26.859Z,33.06
2023-05-21T02:35:25.667Z,31.23
2023-05-21T02:36:25.858Z,30.13
2023-05-21T02:37:25.660Z,29.88
2023-05-21T02:38:26.829Z,30.37
2023-05-21T02:39:26.829Z,29.65
2023-05-21T02:40:26.812Z,26.03
2023-05-21T02:41:27.103Z,29.75
2023-05-21T02:42:26.057Z,30.03
2023-05-21T02:43:26.985Z,26.74
2023-05-21T02:44:27.040Z,28.44
2023-05-21T02:45:27.093Z,31.42
2023-05-21T02:46:26.242Z,30.45
2023-05-21T02:47:27.389Z,32.02
2023-05-21T02:48:27.216Z,32.59
2023-05-21T02:49:26.477Z,26.46
2023-05-21T02:50:27.296Z,30.71
2023-05-21T02:51:26.587Z,28.54
2023-05-21T02:52:26.425Z,29.81
2023-05-21T02:53:26.473Z,26.41
2023-05-21T02:54:26.698Z,26.66
2023-05-21T02:55:26.619Z,33.66
2023-05-21T02:56:26.769Z,30.52
2023-05-21T02:57:26.754Z,29.44
2023-05-21T02:58:26.741Z,33.91
2023-05-21T02:59:26.806Z,33.39
2023-05-21T03:00:27.066Z,30.91
2023-05-21T03:01:27.084Z,29.24
2023-05-21T03:02:27.376Z,28.83
2023-05-21T03:03:28.454Z,28.51
2023-05-21T03:04:28.246Z,29.52
2023-05-21T03:05:27.276Z,30.77
2023-05-21T03:06:28.250Z,30.75
2023-05-21T03:07:27.517Z,28.22
2023-05-21T03:08:27.543Z,32.85
2023-05-21T03:09:28.570Z,27.40
2023-05-21T03:10:28.605Z,29.93
2023-05-21T03:11:27.512Z,27.95
2023-05-21T03:12:27.621Z,29.75
2023-05-21T03:13:27.780Z,30.88
2023-05-21T03:14:27.628Z,26.73
2023-05-21T03:15:28.891Z,28.83
2023-05-21T03:16:28.842Z,30.40
2023-05-21T03:17:28.837Z,27.35
2023-05-21T03:18:28.880Z,29.71
2023-05-21T03:19:29.162Z,29.00
2023-05-21T03:20:28.974Z,28.87
2023-05-21T03:21:28.020Z,31.45
2023-05-21T03:22:28.090Z,30.67
2023-05-21T03:23:29.123Z,30.84
2023-05-21T03:24:28.224Z,32.28
2023-05-21T03:25:29.394Z,29.38
2023-05-21T03:26:28.372Z,29.40
2023-05-21T03:27:29.338Z,30.78
2023-05-21T03:28:29.376Z,28.76
2023-05-21T03:29:29.437Z,30.36
2023-05-21T03:30:28.487Z,29.16
2023-05-21T03:31:29.645Z,30.31
2023-05-21T03:32:28.648Z,28.10
2023-05-21T03:33:28.723Z,35.98
2023-05-21T03:34:29.679Z,31.71
2023-05-21T03:35:29.757Z,30.36
2023-05-21T03:36:28.775Z,31.05
2023-05-21T03:37:28.835Z,34.16
2023-05-21T03:38:28.888Z,29.61
2023-05-21T03:39:30.006Z,30.84
2023-05-21T03:40:30.215Z,27.00
2023-05-21T03:41:29.065Z,30.57
2023-05-21T03:42:29.128Z,28.56
2023-05-21T03:43:29.334Z,29.99
2023-05-21T03:44:30.256Z,28.03
2023-05-21T03:45:29.334Z,26.88
2023-05-21T03:46:30.571Z,27.76
2023-05-21T03:47:29.639Z,32.32
2023-05-21T03:48:29.535Z,32.11
2023-05-21T03:49:30.598Z,27.15
2023-05-21T03:50:29.659Z,31.68
2023-05-21T03:51:29.652Z,30.06
2023-05-21T03:52:30.720Z,28.26
2023-05-21T03:53:29.821Z,27.20
2023-05-21T03:54:29.812Z,25.69
2023-05-21T03:55:30.978Z,25.52
2023-05-21T03:56:31.020Z,33.09
2023-05-21T03:57:30.168Z,31.03
2023-05-21T03:58:30.215Z,28.85
2023-05-21T03:59:30.140Z,31.84
2023-05-21T04:00:30.206Z,35.20
2023-05-21T04:01:30.227Z,30.77
2023-05-21T04:02:30.367Z,30.01
2023-05-21T04:03:30.537Z,30.19
2023-05-21T04:04:30.505Z,35.44
2023-05-21T04:05:31.582Z,34.48
2023-05-21T04:06:30.525Z,29.11
2023-05-21T04:07:30.589Z,30.38
2023-05-21T04:08:30.923Z,28.79
2023-05-21T04:09:30.718Z,32.02
2023-05-21T04:10:30.776Z,29.25
2023-05-21T04:11:31.025Z,33.43
2023-05-21T04:12:30.873Z,31.67
2023-05-21T04:13:31.109Z,37.36
2023-05-21T04:14:30.970Z,27.42
2023-05-21T04:15:31.172Z,34.72
2023-05-21T04:16:31.221Z,31.09
2023-05-21T04:17:31.222Z,26.24
2023-05-21T04:18:32.312Z,31.17
2023-05-21T04:19:31.342Z,27.57
2023-05-21T04:20:32.355Z,35.55
2023-05-21T04:21:31.407Z,32.11
2023-05-21T04:22:32.529Z,31.26
2023-05-21T04:23:31.711Z,30.37
2023-05-21T04:24:31.611Z,25.00
2023-05-21T04:25:31.698Z,32.23
2023-05-21T04:26:31.644Z,34.92
2023-05-21T04:27:32.789Z,36.43
2023-05-21T04:28:31.927Z,31.21
2023-05-21T04:29:32.822Z,32.04
2023-05-21T04:30:32.123Z,32.16
2023-05-21T04:31:32.232Z,30.42
2023-05-21T04:32:33.188Z,34.70
2023-05-21T04:33:32.097Z,31.91
2023-05-21T04:34:33.121Z,29.60
2023-05-21T04:35:33.273Z,31.93
2023-05-21T04:36:32.251Z,37.44
2023-05-21T04:37:33.298Z,31.21
2023-05-21T04:38:33.668Z,36.13
2023-05-21T04:39:33.538Z,36.42
2023-05-21T04:40:33.459Z,30.91
2023-05-21T04:41:33.622Z,30.93
2023-05-21T04:42:32.666Z,31.29
2023-05-21T04:43:32.524Z,32.56
2023-05-21T04:44:32.641Z,28.35
2023-05-21T04:45:33.412Z,38.46
2023-05-21T04:46:32.625Z,31.83
2023-05-21T04:47:32.423Z,30.49
2023-05-21T04:48:32.460Z,31.37
2023-05-21T04:49:32.629Z,31.54
2023-05-21T04:50:33.552Z,32.05
2023-05-21T04:51:33.592Z,30.35
2023-05-21T04:52:32.385Z,27.75
2023-05-21T04:53:32.370Z,31.01
2023-05-21T04:54:32.381Z,33.51
2023-05-21T04:55:33.366Z,29.99
2023-05-21T04:56:33.519Z,27.55
2023-05-21T04:57:32.531Z,29.62
2023-05-21T04:58:32.600Z,33.67
2023-05-21T04:59:32.366Z,27.90
2023-05-21T05:00:32.661Z,31.44
2023-05-21T05:01:33.682Z,29.66
2023-05-21T05:02:33.630Z,31.58
2023-05-21T05:03:32.825Z,30.22
2023-05-21T05:04:32.668Z,34.15
2023-05-21T05:05:32.679Z,32.83
2023-05-21T05:06:33.851Z,33.11
2023-05-21T05:07:32.844Z,31.07
2023-05-21T05:08:33.850Z,26.95
2023-05-21T05:09:34.004Z,32.99
2023-05-21T05:10:34.098Z,31.34
2023-05-21T05:11:34.047Z,32.95
2023-05-21T05:12:34.070Z,38.22
2023-05-21T05:13:34.296Z,29.35
2023-05-21T05:14:34.432Z,30.79
2023-05-21T05:15:33.284Z,33.56
2023-05-21T05:16:33.599Z,33.71
2023-05-21T05:17:34.534Z,30.49
2023-05-21T05:18:33.642Z,29.55
2023-05-21T05:19:33.831Z,30.75
2023-05-21T05:20:33.679Z,28.09
2023-05-21T05:21:34.813Z,33.67
2023-05-21T05:22:33.635Z,32.49
2023-05-21T05:23:33.732Z,32.29
2023-05-21T05:24:34.859Z,33.23
2023-05-21T05:25:34.065Z,33.01
2023-05-21T05:26:35.020Z,29.36
2023-05-21T05:27:35.029Z,30.74
2023-05-21T05:28:35.026Z,30.66
2023-05-21T05:29:34.105Z,30.81
2023-05-21T05:30:35.289Z,32.88
2023-05-21T05:31:35.254Z,32.91
2023-05-21T05:32:34.253Z,32.15
2023-05-21T05:33:35.336Z,30.51
2023-05-21T05:34:34.401Z,30.31
2023-05-21T05:35:35.610Z,31.29
2023-05-21T05:36:34.568Z,31.33
2023-05-21T05:37:35.701Z,30.02
2023-05-21T05:38:35.564Z,32.27
2023-05-21T05:39:34.718Z,31.51
2023-05-21T05:40:35.702Z,33.90
2023-05-21T05:41:35.886Z,30.12
2023-05-21T05:42:35.824Z,32.04
2023-05-21T05:43:35.892Z,29.10
2023-05-21T05:44:34.880Z,30.52
2023-05-21T05:45:36.120Z,30.43
2023-05-21T05:46:35.129Z,32.31
2023-05-21T05:47:35.310Z,29.58
2023-05-21T05:48:36.237Z,28.79
2023-05-21T05:49:35.146Z,31.05
2023-05-21T05:50:35.208Z,27.42
2023-05-21T05:51:35.279Z,28.99
2023-05-21T05:52:36.395Z,31.71
2023-05-21T05:53:35.346Z,30.27
2023-05-21T05:54:35.483Z,31.05
2023-05-21T05:55:36.852Z,28.41
2023-05-21T05:56:35.500Z,27.94
2023-05-21T05:57:35.757Z,31.96
2023-05-21T05:58:36.606Z,29.13
2023-05-21T05:59:35.856Z,29.65
2023-05-21T06:00:35.707Z,30.04
2023-05-21T06:01:35.982Z,27.54
2023-05-21T06:02:35.883Z,31.53
2023-05-21T06:03:36.259Z,29.21
2023-05-21T06:04:36.008Z,28.30
2023-05-21T06:05:37.110Z,28.82
2023-05-21T06:06:37.206Z,31.72
2023-05-21T06:07:37.030Z,30.18
2023-05-21T06:08:38.177Z,27.87
2023-05-21T06:09:36.127Z,31.37
2023-05-21T06:10:36.182Z,31.20
2023-05-21T06:11:37.253Z,29.22
2023-05-21T06:12:36.285Z,27.86
2023-05-21T06:13:36.633Z,32.15
2023-05-21T06:14:36.472Z,28.62
2023-05-21T06:15:37.710Z,28.81
2023-05-21T06:16:36.512Z,27.87
2023-05-21T06:17:37.728Z,31.17
2023-05-21T06:18:37.833Z,29.31
2023-05-21T06:19:37.641Z,30.85
2023-05-21T06:20:37.598Z,27.22
2023-05-21T06:21:36.646Z,32.05
2023-05-21T06:22:37.692Z,29.13
2023-05-21T06:23:36.715Z,27.29
2023-05-21T06:24:36.749Z,29.78
2023-05-21T06:25:37.970Z,30.45
2023-05-21T06:26:37.830Z,29.98
2023-05-21T06:27:36.862Z,31.67
2023-05-21T06:28:37.953Z,32.06
2023-05-21T06:29:37.969Z,30.16
2023-05-21T06:30:37.963Z,32.17
2023-05-21T06:31:37.004Z,34.59
2023-05-21T06:32:38.158Z,31.88
2023-05-21T06:33:38.234Z,33.43
2023-05-21T06:34:37.126Z,31.16
2023-05-21T06:35:38.312Z,28.81
2023-05-21T06:36:37.236Z,32.66
2023-05-21T06:37:38.314Z,31.88
2023-05-21T06:38:38.260Z,30.38
2023-05-21T06:39:38.376Z,32.28
2023-05-21T06:40:37.334Z,29.96
2023-05-21T06:41:37.556Z,27.73
2023-05-21T06:42:38.408Z,31.66
2023-05-21T06:43:37.608Z,32.00
2023-05-21T06:44:38.459Z,31.64
2023-05-21T06:45:37.959Z,30.87
2023-05-21T06:46:38.741Z,30.15
2023-05-21T06:47:38.671Z,29.76
2023-05-21T06:48:38.598Z,31.99
2023-05-21T06:49:37.580Z,30.57
2023-05-21T06:50:38.779Z,30.69
2023-05-21T06:51:38.657Z,31.57
2023-05-21T06:52:38.705Z,29.95
2023-05-21T06:53:37.786Z,31.67
2023-05-21T06:54:37.890Z,31.57
2023-05-21T06:55:38.922Z,30.65
2023-05-21T06:56:38.755Z,30.73
2023-05-21T06:57:37.772Z,30.34
2023-05-21T06:58:37.818Z,29.79
2023-05-21T06:59:38.846Z,30.93
2023-05-21T07:00:37.857Z,26.10
2023-05-21T07:01:38.257Z,29.51
2023-05-21T07:02:38.055Z,29.32
2023-05-21T07:03:38.113Z,29.70
2023-05-21T07:04:37.951Z,31.12
2023-05-21T07:05:38.423Z,28.17
2023-05-21T07:06:39.003Z,32.51
2023-05-21T07:07:39.211Z,30.31
2023-05-21T07:08:38.080Z,31.82
2023-05-21T07:09:38.107Z,31.68
2023-05-21T07:10:39.260Z,31.15
2023-05-21T07:11:38.119Z,29.69
2023-05-21T07:12:38.140Z,31.09
2023-05-21T07:13:39.300Z,30.37
2023-05-21T07:14:38.194Z,31.23
2023-05-21T07:15:38.460Z,28.35
2023-05-21T07:16:39.327Z,32.11
2023-05-21T07:17:39.290Z,33.08
2023-05-21T07:18:38.273Z,32.62
2023-05-21T07:19:38.368Z,32.36
2023-05-21T07:20:38.321Z,29.28
2023-05-21T07:21:38.383Z,32.39
2023-05-21T07:22:39.611Z,28.88
2023-05-21T07:23:38.526Z,31.81
2023-05-21T07:24:39.400Z,31.71
2023-05-21T07:25:38.627Z,29.31
2023-05-21T07:26:39.526Z,32.12
2023-05-21T07:27:38.659Z,33.80
2023-05-21T07:28:38.485Z,30.08
2023-05-21T07:29:38.705Z,30.96
2023-05-21T07:30:38.527Z,33.33
2023-05-21T07:31:39.833Z,32.72
2023-05-21T07:32:38.610Z,30.77
2023-05-21T07:33:38.628Z,31.80
2023-05-21T07:34:39.611Z,32.17
2023-05-21T07:35:38.876Z,30.14
2023-05-21T07:36:38.645Z,30.36
2023-05-21T07:37:38.774Z,31.99
2023-05-21T07:38:39.880Z,33.01
2023-05-21T07:39:39.836Z,32.08
2023-05-21T07:40:39.843Z,32.05
2023-05-21T07:41:38.863Z,33.68
2023-05-21T07:42:38.758Z,31.84
2023-05-21T07:43:39.809Z,35.59
2023-05-21T07:44:39.909Z,30.36
2023-05-21T07:45:39.078Z,35.71
2023-05-21T07:46:40.164Z,34.00
2023-05-21T07:47:39.121Z,30.84
2023-05-21T07:48:38.952Z,35.55
2023-05-21T07:49:38.994Z,34.24
2023-05-21T07:50:39.862Z,34.20
2023-05-21T07:51:38.936Z,34.27
2023-05-21T07:52:40.239Z,35.00
2023-05-21T07:53:38.901Z,34.42
2023-05-21T07:54:39.945Z,31.10
2023-05-21T07:55:40.082Z,30.94
2023-05-21T07:56:40.055Z,31.12
2023-05-21T07:57:39.039Z,32.85
2023-05-21T07:58:39.044Z,33.84
2023-05-21T07:59:39.134Z,38.04
2023-05-21T08:00:39.011Z,34.39
2023-05-21T08:01:40.021Z,31.00
2023-05-21T08:02:40.107Z,33.87
2023-05-21T08:03:40.383Z,31.39
2023-05-21T08:04:41.187Z,31.40
2023-05-21T08:05:39.401Z,34.64
2023-05-21T08:06:40.080Z,33.70
2023-05-21T08:07:40.313Z,29.91
2023-05-21T08:08:40.147Z,35.11
2023-05-21T08:09:40.126Z,36.97
2023-05-21T08:10:40.244Z,31.73
2023-05-21T08:11:39.222Z,34.92
2023-05-21T08:12:39.140Z,32.74
2023-05-21T08:13:40.244Z,32.60
2023-05-21T08:14:39.291Z,31.19
2023-05-21T08:15:39.239Z,36.92
2023-05-21T08:16:40.304Z,32.04
2023-05-21T08:17:39.341Z,31.82
2023-05-21T08:18:39.220Z,30.64
2023-05-21T08:19:39.460Z,34.71
2023-05-21T08:20:39.395Z,34.63
2023-05-21T08:21:40.388Z,33.05
2023-05-21T08:22:40.347Z,33.34
2023-05-21T08:23:40.379Z,33.02
2023-05-21T08:24:40.286Z,28.26
2023-05-21T08:25:40.355Z,33.97
2023-05-21T08:26:39.295Z,30.53
2023-05-21T08:27:40.312Z,33.79
2023-05-21T08:28:39.290Z,32.30
2023-05-21T08:29:40.302Z,34.71
2023-05-21T08:30:39.299Z,32.59
2023-05-21T08:31:39.398Z,35.26
2023-05-21T08:32:39.329Z,31.62
2023-05-21T08:33:39.325Z,34.64
2023-05-21T08:34:39.379Z,31.84
2023-05-21T08:35:39.547Z,35.51
2023-05-21T08:36:39.367Z,34.41
2023-05-21T08:37:40.355Z,35.72
2023-05-21T08:38:39.540Z,34.98
2023-05-21T08:39:39.357Z,34.71
2023-05-21T08:40:39.364Z,38.15
2023-05-21T08:41:40.423Z,37.75
2023-05-21T08:42:39.603Z,34.85
2023-05-21T08:43:40.447Z,34.51
2023-05-21T08:44:39.432Z,35.50
2023-05-21T08:45:40.619Z,33.82
2023-05-21T08:46:39.569Z,35.92
2023-05-21T08:47:40.606Z,32.87
2023-05-21T08:48:40.439Z,38.50
2023-05-21T08:49:40.528Z,34.57
2023-05-21T08:50:40.405Z,36.43
2023-05-21T08:51:40.485Z,37.91
2023-05-21T08:52:40.443Z,34.51
2023-05-21T08:53:39.540Z,36.00
2023-05-21T08:54:40.558Z,33.75
2023-05-21T08:55:40.448Z,36.28
2023-05-21T08:56:40.508Z,38.54
2023-05-21T08:57:40.504Z,37.09
2023-05-21T08:58:39.427Z,35.58
2023-05-21T08:59:39.490Z,40.36
2023-05-21T09:00:39.444Z,35.98
2023-05-21T09:01:39.642Z,37.54
2023-05-21T09:02:39.636Z,34.74
2023-05-21T09:03:39.558Z,34.94
2023-05-21T09:04:39.639Z,35.75
2023-05-21T09:05:39.427Z,39.45
2023-05-21T09:06:39.452Z,36.48
2023-05-21T09:07:40.434Z,36.52
2023-05-21T09:08:39.436Z,35.83
2023-05-21T09:09:40.703Z,38.59
2023-05-21T09:10:39.517Z,37.94
2023-05-21T09:11:40.657Z,36.13
2023-05-21T09:12:40.464Z,40.43
2023-05-21T09:13:40.643Z,34.43
2023-05-21T09:14:39.641Z,38.01
2023-05-21T09:15:39.522Z,36.50
2023-05-21T09:16:40.487Z,36.88
2023-05-21T09:17:39.616Z,38.63
2023-05-21T09:18:39.427Z,39.96
2023-05-21T09:19:40.604Z,36.73
2023-05-21T09:20:40.548Z,40.07
2023-05-21T09:21:40.562Z,38.49
2023-05-21T09:22:40.431Z,39.60
2023-05-21T09:23:40.498Z,38.98
2023-05-21T09:24:40.504Z,37.43
2023-05-21T09:25:39.719Z,38.01
2023-05-21T09:26:39.480Z,38.34
2023-05-21T09:27:39.645Z,37.93
2023-05-21T09:28:40.408Z,40.08
2023-05-21T09:29:39.562Z,38.49
2023-05-21T09:30:39.769Z,35.30
2023-05-21T09:31:40.657Z,35.61
2023-05-21T09:32:39.441Z,38.11
2023-05-21T09:33:39.396Z,36.70
2023-05-21T09:34:40.621Z,39.96
2023-05-21T09:35:39.627Z,40.03
2023-05-21T09:36:39.387Z,38.60
2023-05-21T09:37:40.429Z,37.16
2023-05-21T09:38:39.413Z,40.69
2023-05-21T09:39:39.401Z,38.17
2023-05-21T09:40:39.439Z,38.67
2023-05-21T09:41:39.455Z,38.61
2023-05-21T09:42:39.482Z,42.09
2023-05-21T09:43:39.388Z,41.75
2023-05-21T09:44:39.424Z,39.65
2023-05-21T09:45:39.378Z,39.78
2023-05-21T09:46:40.397Z,40.60
2023-05-21T09:47:40.610Z,36.93
2023-05-21T09:48:39.371Z,40.88
2023-05-21T09:49:40.434Z,39.83
2023-05-21T09:50:39.477Z,40.10
2023-05-21T09:51:39.378Z,40.61
2023-05-21T09:52:41.866Z,39.92
2023-05-21T09:53:39.521Z,41.84
2023-05-21T09:54:39.457Z,40.15
2023-05-21T09:55:40.409Z,37.64
2023-05-21T09:56:39.520Z,42.83
2023-05-21T09:57:39.542Z,43.53
2023-05-21T09:58:40.523Z,40.75
2023-05-21T09:59:39.419Z,39.72
2023-05-21T10:00:40.362Z,41.79
2023-05-21T10:01:39.282Z,39.22
2023-05-21T10:02:40.423Z,38.75
2023-05-21T10:03:40.344Z,39.57
2023-05-21T10:04:39.321Z,39.99
2023-05-21T10:05:40.443Z,40.08
2023-05-21T10:06:39.284Z,39.32
2023-05-21T10:07:39.235Z,42.46
2023-05-21T10:08:39.232Z,40.44
2023-05-21T10:09:39.302Z,42.66
2023-05-21T10:10:39.216Z,43.53
2023-05-21T10:11:40.421Z,42.67
2023-05-21T10:12:40.200Z,43.48
2023-05-21T10:13:39.193Z,42.10
2023-05-21T10:14:40.406Z,39.39
2023-05-21T10:15:40.187Z,41.30
2023-05-21T10:16:39.305Z,42.41
2023-05-21T10:17:39.323Z,40.08
2023-05-21T10:18:40.157Z,42.59
2023-05-21T10:19:39.177Z,41.68
2023-05-21T10:20:39.328Z,42.60
2023-05-21T10:21:39.181Z,40.49
2023-05-21T10:22:39.118Z,44.08
2023-05-21T10:23:39.246Z,41.55
2023-05-21T10:24:40.121Z,41.23
2023-05-21T10:25:39.124Z,41.81
2023-05-21T10:26:39.155Z,41.24
2023-05-21T10:27:39.347Z,41.35
2023-05-21T10:28:40.128Z,40.80
2023-05-21T10:29:40.117Z,42.73
2023-05-21T10:30:39.417Z,41.20
2023-05-21T10:31:40.167Z,41.59
2023-05-21T10:32:40.191Z,41.29
2023-05-21T10:33:39.072Z,43.36
2023-05-21T10:34:40.127Z,41.15
2023-05-21T10:35:40.309Z,45.34
2023-05-21T10:36:38.995Z,40.88
2023-05-21T10:37:39.073Z,42.24
2023-05-21T10:38:40.001Z,40.75
2023-05-21T10:39:40.152Z,42.68
2023-05-21T10:40:39.281Z,43.31
2023-05-21T10:41:38.977Z,42.30
2023-05-21T10:42:39.988Z,41.45
2023-05-21T10:43:39.948Z,42.23
2023-05-21T10:44:40.000Z,41.04
2023-05-21T10:45:40.019Z,42.25
2023-05-21T10:46:38.939Z,44.18
2023-05-21T10:47:39.952Z,42.78
2023-05-21T10:48:40.014Z,42.33
2023-05-21T10:49:39.901Z,42.43
2023-05-21T10:50:40.035Z,43.97
2023-05-21T10:51:38.919Z,43.16
2023-05-21T10:52:38.875Z,42.04
2023-05-21T10:53:38.966Z,42.84
2023-05-21T10:54:38.856Z,43.26
2023-05-21T10:55:39.936Z,44.73
2023-05-21T10:56:39.866Z,43.74
2023-05-21T10:57:39.842Z,41.34
2023-05-21T10:58:39.949Z,42.98
2023-05-21T10:59:39.899Z,43.36
2023-05-21T11:00:39.829Z,43.93
2023-05-21T11:01:38.887Z,44.25
2023-05-21T11:02:38.916Z,43.38
2023-05-21T11:03:39.879Z,44.60
2023-05-21T11:04:38.788Z,45.16
2023-05-21T11:05:39.822Z,43.84
2023-05-21T11:06:39.788Z,45.97
2023-05-21T11:07:39.806Z,44.69
2023-05-21T11:08:39.766Z,41.65
2023-05-21T11:09:39.871Z,44.92
2023-05-21T11:10:40.097Z,44.66
2023-05-21T11:11:39.747Z,44.49
2023-05-21T11:12:39.822Z,42.45
2023-05-21T11:13:39.814Z,39.22
2023-05-21T11:14:38.823Z,43.22
2023-05-21T11:15:39.868Z,44.60
2023-05-21T11:16:39.917Z,41.78
2023-05-21T11:17:38.977Z,42.50
2023-05-21T11:18:38.888Z,42.72
2023-05-21T11:19:39.218Z,45.55
2023-05-21T11:20:38.965Z,43.55
2023-05-21T11:21:38.957Z,42.73
2023-05-21T11:22:39.975Z,43.72
2023-05-21T11:23:40.022Z,44.37
2023-05-21T11:24:38.987Z,41.23
2023-05-21T11:25:40.015Z,42.33
2023-05-21T11:26:40.032Z,44.88
2023-05-21T11:27:40.066Z,45.19
2023-05-21T11:28:39.117Z,43.79
2023-05-21T11:29:39.322Z,44.60
2023-05-21T11:30:41.020Z,46.68
2023-05-21T11:31:40.380Z,45.34
2023-05-21T11:32:40.521Z,44.55
2023-05-21T11:33:39.562Z,45.17
2023-05-21T11:34:40.425Z,43.95
2023-05-21T11:35:40.530Z,45.91
2023-05-21T11:36:39.576Z,44.65
2023-05-21T11:37:39.642Z,47.08
2023-05-21T11:38:39.738Z,45.44
2023-05-21T11:39:39.861Z,44.91
2023-05-21T11:40:40.002Z,44.60
2023-05-21T11:41:39.792Z,42.25
2023-05-21T11:42:39.941Z,45.41
2023-05-21T11:43:40.929Z,43.65
2023-05-21T11:44:41.095Z,45.47
2023-05-21T11:45:40.181Z,47.94
2023-05-21T11:46:40.213Z,45.86
2023-05-21T11:47:40.113Z,42.67
2023-05-21T11:48:40.143Z,41.12
2023-05-21T11:49:41.348Z,45.96
2023-05-21T11:50:41.476Z,45.94
2023-05-21T11:51:40.541Z,44.44
2023-05-21T11:52:40.323Z,44.47
2023-05-21T11:53:43.469Z,43.38
2023-05-21T11:54:40.387Z,45.89
2023-05-21T11:55:40.389Z,45.08
2023-05-21T11:56:40.425Z,44.59
2023-05-21T11:57:41.348Z,46.10
2023-05-21T11:58:41.335Z,45.78
2023-05-21T11:59:41.338Z,44.77
2023-05-21T12:00:40.329Z,46.44
2023-05-21T12:01:40.379Z,47.23
2023-05-21T12:02:40.632Z,45.50
2023-05-21T12:03:41.540Z,47.63
2023-05-21T12:04:40.406Z,42.92
2023-05-21T12:05:41.330Z,44.70
2023-05-21T12:06:41.331Z,45.09
2023-05-21T12:07:41.271Z,43.04
2023-05-21T12:08:41.255Z,46.21
2023-05-21T12:09:41.250Z,45.39
2023-05-21T12:10:41.459Z,46.41
2023-05-21T12:11:40.264Z,47.66
2023-05-21T12:12:54.068Z,47.64
2023-05-21T12:13:41.225Z,47.65
2023-05-21T12:14:41.337Z,46.53
2023-05-21T12:15:41.426Z,47.96
2023-05-21T12:16:40.264Z,47.79
2023-05-21T12:17:40.471Z,43.04
2023-05-21T12:18:41.311Z,45.04
2023-05-21T12:19:41.271Z,48.03
2023-05-21T12:20:41.363Z,49.46
2023-05-21T12:21:41.198Z,44.31
2023-05-21T12:22:41.480Z,45.39
2023-05-21T12:23:40.452Z,44.04
2023-05-21T12:24:41.364Z,44.34
2023-05-21T12:25:40.404Z,48.02
2023-05-21T12:26:41.677Z,48.17
2023-05-21T12:27:40.682Z,45.99
2023-05-21T12:28:41.566Z,46.23
2023-05-21T12:29:40.651Z,46.53
2023-05-21T12:30:40.748Z,48.94
2023-05-21T12:31:41.900Z,46.71
2023-05-21T12:32:41.133Z,47.43
2023-05-21T12:33:42.062Z,43.42
2023-05-21T12:34:41.000Z,45.72
2023-05-21T12:35:42.301Z,48.44
2023-05-21T12:36:40.981Z,46.84
2023-05-21T12:37:42.264Z,47.75
2023-05-21T12:38:41.228Z,49.36
2023-05-21T12:39:41.186Z,46.29
2023-05-21T12:40:41.389Z,46.94
2023-05-21T12:41:42.491Z,47.92
2023-05-21T12:42:41.416Z,44.91
2023-05-21T12:43:41.368Z,46.23
2023-05-21T12:44:41.395Z,49.26
2023-05-21T12:45:41.579Z,47.65
2023-05-21T12:46:41.583Z,47.73
2023-05-21T12:47:41.610Z,45.74
2023-05-21T12:48:41.785Z,48.92
2023-05-21T12:49:41.813Z,44.85
2023-05-21T12:50:41.668Z,46.15
2023-05-21T12:51:41.719Z,47.64
2023-05-21T12:52:41.709Z,43.68